createdAt,value
2022-11-28T00:01:17.223Z,5.03
2022-11-28T00:03:44.717Z,5.30
2022-11-28T00:06:12.354Z,4.80
2022-11-28T00:08:41.398Z,5.10
2022-11-28T00:11:09.706Z,5.30
2022-11-28T00:13:37.579Z,5.50
2022-11-28T00:16:06.811Z,5.27
2022-11-28T00:18:34.621Z,5.60
2022-11-28T00:21:02.069Z,5.20
2022-11-28T00:23:30.524Z,5.60
2022-11-28T00:26:00.206Z,5.60
2022-11-28T00:28:27.626Z,5.53
2022-11-28T00:30:55.039Z,5.27
2022-11-28T00:33:22.472Z,5.80
2022-11-28T00:35:49.945Z,6.30
2022-11-28T00:38:17.471Z,5.97
2022-11-28T00:40:44.869Z,6.00
2022-11-28T00:43:13.746Z,5.23
2022-11-28T00:45:41.172Z,5.70
2022-11-28T00:48:08.661Z,6.03
2022-11-28T00:50:36.054Z,5.90
2022-11-28T00:53:03.437Z,6.30
2022-11-28T00:55:30.855Z,6.23
2022-11-28T00:57:58.405Z,5.93
2022-11-28T01:00:27.230Z,6.13
2022-11-28T01:02:54.626Z,6.50
2022-11-28T01:05:22.066Z,6.50
2022-11-28T01:07:49.596Z,6.40
2022-11-28T01:10:17.139Z,6.90
2022-11-28T01:12:44.651Z,6.20
2022-11-28T01:15:13.099Z,6.20
2022-11-28T01:17:41.878Z,6.67
2022-11-28T01:20:10.124Z,6.00
2022-11-28T01:22:37.514Z,6.03
2022-11-28T01:25:05.129Z,6.70
2022-11-28T01:27:32.532Z,5.93
2022-11-28T01:30:00.159Z,6.57
2022-11-28T01:32:27.665Z,6.40
2022-11-28T01:34:56.466Z,6.20
2022-11-28T01:37:23.917Z,6.53
2022-11-28T01:39:51.322Z,6.30
2022-11-28T01:42:19.054Z,6.27
2022-11-28T01:45:04.849Z,6.20
2022-11-28T01:47:32.713Z,6.17
2022-11-28T01:50:01.887Z,6.53
2022-11-28T01:52:29.408Z,6.47
2022-11-28T01:55:00.485Z,6.83
2022-11-28T01:57:28.494Z,6.50
2022-11-28T01:59:58.082Z,5.80
2022-11-28T02:02:28.012Z,6.63
2022-11-28T02:04:55.558Z,6.17
2022-11-28T02:07:24.801Z,6.43
2022-11-28T02:09:52.270Z,6.53
2022-11-28T02:12:26.794Z,6.57
2022-11-28T02:15:06.214Z,6.63
2022-11-28T02:17:41.520Z,7.00
2022-11-28T02:20:21.057Z,7.00
2022-11-28T02:22:53.324Z,6.33
2022-11-28T02:25:35.637Z,6.37
2022-11-28T02:28:21.048Z,6.70
2022-11-28T02:30:54.063Z,6.27
2022-11-28T02:33:27.176Z,6.77
2022-11-28T02:35:58.026Z,6.00
2022-11-28T02:38:32.754Z,6.43
2022-11-28T02:41:03.581Z,6.67
2022-11-28T02:43:34.042Z,6.67
2022-11-28T02:46:05.266Z,6.63
2022-11-28T02:48:37.658Z,6.60
2022-11-28T02:51:08.241Z,6.87
2022-11-28T02:53:36.432Z,6.60
2022-11-28T02:56:04.269Z,6.40
2022-11-28T02:58:31.986Z,6.80
2022-11-28T03:00:59.657Z,6.93
2022-11-28T03:03:37.583Z,6.50
2022-11-28T03:06:10.759Z,6.13
2022-11-28T03:08:44.656Z,6.77
2022-11-28T03:11:16.640Z,6.50
2022-11-28T03:13:51.231Z,6.53
2022-11-28T03:16:24.276Z,7.03
2022-11-28T03:18:56.579Z,6.40
2022-11-28T03:21:26.849Z,6.27
2022-11-28T03:23:58.398Z,6.40
2022-11-28T03:29:12.441Z,6.47
2022-11-28T03:31:42.192Z,7.00
2022-11-28T03:34:11.025Z,6.03
2022-11-28T03:36:41.880Z,6.57
2022-11-28T03:39:10.592Z,6.40
2022-11-28T03:41:39.584Z,6.80
2022-11-28T03:44:08.658Z,6.23
2022-11-28T03:46:37.481Z,6.67
2022-11-28T03:49:07.080Z,6.37
2022-11-28T03:51:36.681Z,6.87
2022-11-28T03:54:08.173Z,6.60
2022-11-28T03:56:39.500Z,6.87
2022-11-28T03:59:09.884Z,6.63
2022-11-28T04:01:41.488Z,6.93
2022-11-28T04:04:12.706Z,6.40
2022-11-28T04:06:45.530Z,6.60
2022-11-28T04:09:16.720Z,7.30
2022-11-28T04:11:46.261Z,6.90
2022-11-28T04:14:15.396Z,6.50
2022-11-28T04:16:49.284Z,7.20
2022-11-28T04:19:24.128Z,6.03
2022-11-28T04:21:54.301Z,6.30
2022-11-28T04:24:28.242Z,7.03
2022-11-28T04:26:58.355Z,7.03
2022-11-28T04:29:26.520Z,7.20
2022-11-28T04:31:56.826Z,6.53
2022-11-28T04:34:25.798Z,6.70
2022-11-28T04:36:54.372Z,6.73
2022-11-28T04:39:25.729Z,8.00
2022-11-28T04:41:54.397Z,7.10
2022-11-28T04:44:24.284Z,7.07
2022-11-28T04:46:52.951Z,7.67
2022-11-28T04:49:20.479Z,7.00
2022-11-28T04:51:51.357Z,7.10
2022-11-28T04:54:21.648Z,6.70
2022-11-28T04:56:52.474Z,7.10
2022-11-28T04:59:21.008Z,7.07
2022-11-28T05:01:49.309Z,6.20
2022-11-28T05:04:17.167Z,7.40
2022-11-28T05:06:44.545Z,7.23
2022-11-28T05:09:12.491Z,7.67
2022-11-28T05:11:39.892Z,6.90
2022-11-28T05:14:08.720Z,7.07
2022-11-28T05:16:36.285Z,6.53
2022-11-28T05:19:03.819Z,6.70
2022-11-28T05:21:31.198Z,7.27
2022-11-28T05:23:58.675Z,6.73
2022-11-28T05:26:26.215Z,7.60
2022-11-28T05:28:53.580Z,6.60
2022-11-28T05:31:22.517Z,7.57
2022-11-28T05:33:49.990Z,6.67
2022-11-28T05:36:18.407Z,7.40
2022-11-28T05:38:45.909Z,6.80
2022-11-28T05:41:19.538Z,7.00
2022-11-28T05:43:46.973Z,6.60
2022-11-28T05:46:14.383Z,7.30
2022-11-28T05:48:43.249Z,6.30
2022-11-28T05:51:10.735Z,6.57
2022-11-28T05:53:38.164Z,6.90
2022-11-28T05:56:09.066Z,6.70
2022-11-28T05:58:36.500Z,7.00
2022-11-28T06:01:09.914Z,6.80
2022-11-28T06:03:37.381Z,7.20
2022-11-28T06:06:09.198Z,6.97
2022-11-28T06:08:36.574Z,6.50
2022-11-28T06:11:03.972Z,7.03
2022-11-28T06:13:31.721Z,6.87
2022-11-28T06:15:59.320Z,7.60
2022-11-28T06:18:26.751Z,7.43
2022-11-28T06:20:54.316Z,7.47
2022-11-28T06:23:23.140Z,7.20
2022-11-28T06:25:50.585Z,7.27
2022-11-28T06:28:18.052Z,7.10
2022-11-28T06:30:45.557Z,7.07
2022-11-28T06:33:13.248Z,7.43
2022-11-28T06:35:41.055Z,7.07
2022-11-28T06:38:12.943Z,7.30
2022-11-28T06:40:43.088Z,7.43
2022-11-28T06:43:10.478Z,7.00
2022-11-28T06:45:37.975Z,7.23
2022-11-28T06:48:05.475Z,7.93
2022-11-28T06:50:33.422Z,8.20
2022-11-28T06:53:00.869Z,7.20
2022-11-28T06:55:30.254Z,7.27
2022-11-28T06:57:59.003Z,7.40
2022-11-28T07:00:26.951Z,7.50
2022-11-28T07:02:54.455Z,6.87
2022-11-28T07:05:22.932Z,7.73
2022-11-28T07:07:54.372Z,7.67
2022-11-28T07:10:22.081Z,7.07
2022-11-28T07:12:53.900Z,7.50
2022-11-28T07:15:22.763Z,7.80
2022-11-28T07:17:50.191Z,7.17
2022-11-28T07:20:17.677Z,8.13
2022-11-28T07:22:46.799Z,7.37
2022-11-28T07:25:16.031Z,7.47
2022-11-28T07:27:43.758Z,7.43
2022-11-28T07:30:11.778Z,7.83
2022-11-28T07:32:41.660Z,7.97
2022-11-28T07:35:09.343Z,8.17
2022-11-28T07:37:36.750Z,7.40
2022-11-28T07:40:04.837Z,7.57
2022-11-28T07:42:32.265Z,7.60
2022-11-28T07:44:59.653Z,7.10
2022-11-28T07:47:27.055Z,7.80
2022-11-28T07:49:55.923Z,8.43
2022-11-28T07:52:23.327Z,7.30
2022-11-28T07:54:51.132Z,10.90
2022-11-28T07:57:18.638Z,8.50
2022-11-28T07:59:46.199Z,9.07
2022-11-28T08:02:14.002Z,8.63
2022-11-28T08:04:48.393Z,7.90
2022-11-28T08:07:18.355Z,7.90
2022-11-28T08:09:45.954Z,7.80
2022-11-28T08:12:13.454Z,8.00
2022-11-28T08:14:41.194Z,8.37
2022-11-28T08:17:09.669Z,8.30
2022-11-28T08:19:37.114Z,7.10
2022-11-28T08:22:04.532Z,7.03
2022-11-28T08:24:33.292Z,7.93
2022-11-28T08:27:00.761Z,7.33
2022-11-28T08:29:28.183Z,7.70
2022-11-28T08:31:55.646Z,7.20
2022-11-28T08:34:23.043Z,7.03
2022-11-28T08:36:50.429Z,7.70
2022-11-28T08:39:25.429Z,7.63
2022-11-28T08:41:57.117Z,7.80
2022-11-28T08:44:24.675Z,7.80
2022-11-28T08:46:52.101Z,7.70
2022-11-28T08:49:19.643Z,6.77
2022-11-28T08:51:47.141Z,7.03
2022-11-28T08:54:14.572Z,7.47
2022-11-28T08:56:42.004Z,7.40
2022-11-28T08:59:11.221Z,7.30
2022-11-28T09:01:39.481Z,7.10
2022-11-28T09:04:07.257Z,7.17
2022-11-28T09:06:34.834Z,7.87
2022-11-28T09:09:02.842Z,8.00
2022-11-28T09:11:30.246Z,7.90
2022-11-28T09:13:57.693Z,7.30
2022-11-28T09:16:26.487Z,7.50
2022-11-28T09:18:54.917Z,8.00
2022-11-28T09:21:22.296Z,8.23
2022-11-28T09:23:49.669Z,7.90
2022-11-28T09:26:17.641Z,8.33
2022-11-28T09:28:45.428Z,8.60
2022-11-28T09:31:13.434Z,8.50
2022-11-28T09:33:42.612Z,7.60
2022-11-28T09:36:11.157Z,7.90
2022-11-28T09:38:38.645Z,7.93
2022-11-28T09:41:21.810Z,8.30
2022-11-28T09:43:54.742Z,7.70
2022-11-28T09:46:26.662Z,8.20
2022-11-28T09:48:56.770Z,8.10
2022-11-28T09:51:26.829Z,7.73
2022-11-28T09:53:59.519Z,8.27
2022-11-28T09:56:26.944Z,8.40
2022-11-28T09:58:57.756Z,7.80
2022-11-28T10:01:28.600Z,7.50
2022-11-28T10:04:00.651Z,7.30
2022-11-28T10:06:30.575Z,7.57
2022-11-28T10:09:07.707Z,7.20
2022-11-28T10:11:40.097Z,7.80
2022-11-28T10:14:17.071Z,7.80
2022-11-28T10:16:48.335Z,7.70
2022-11-28T10:19:45.987Z,7.17
2022-11-28T10:22:07.550Z,7.87
2022-11-28T10:24:36.962Z,9.60
2022-11-28T10:27:05.014Z,8.77
2022-11-28T10:29:34.118Z,8.27
2022-11-28T10:32:02.759Z,8.00
2022-11-28T10:34:33.273Z,8.90
2022-11-28T10:37:02.705Z,9.90
2022-11-28T10:39:30.188Z,9.90
2022-11-28T10:42:12.446Z,8.90
2022-11-28T10:44:45.656Z,8.77
2022-11-28T10:47:17.984Z,9.00
2022-11-28T10:49:53.001Z,9.20
2022-11-28T10:52:22.577Z,8.33
2022-11-28T10:55:04.311Z,9.00
2022-11-28T10:57:36.984Z,9.10
2022-11-28T11:00:10.636Z,8.87
2022-11-28T11:02:39.127Z,9.40
2022-11-28T11:05:13.010Z,8.60
2022-11-28T11:07:44.342Z,7.90
2022-11-28T11:10:15.853Z,9.07
2022-11-28T11:12:43.879Z,8.13
2022-11-28T11:15:16.863Z,8.50
2022-11-28T11:17:44.393Z,7.73
2022-11-28T11:20:29.761Z,10.33
2022-11-28T11:22:59.214Z,8.57
2022-11-28T11:25:27.236Z,8.50
2022-11-28T11:27:55.996Z,8.00
2022-11-28T11:30:27.251Z,8.03
2022-11-28T11:32:55.141Z,8.70
2022-11-28T11:35:23.846Z,8.00
2022-11-28T11:37:51.291Z,8.67
2022-11-28T11:40:23.205Z,8.07
2022-11-28T11:42:54.988Z,8.67
2022-11-28T11:45:27.210Z,8.53
2022-11-28T11:47:54.751Z,8.83
2022-11-28T11:50:22.954Z,9.60
2022-11-28T11:53:01.791Z,9.40
2022-11-28T11:55:31.797Z,8.57
2022-11-28T11:58:05.274Z,8.73
2022-11-28T12:00:36.545Z,9.50
2022-11-28T12:03:05.818Z,9.60
2022-11-28T12:05:58.948Z,9.17
2022-11-28T12:08:31.602Z,8.80
2022-11-28T12:11:06.478Z,9.00
2022-11-28T12:13:34.137Z,9.37
2022-11-28T12:16:04.856Z,8.70
2022-11-28T12:18:35.495Z,9.10
2022-11-28T12:21:07.798Z,8.60
2022-11-28T12:23:41.912Z,8.83
2022-11-28T12:26:16.670Z,8.63
2022-11-28T12:28:52.093Z,8.73
2022-11-28T12:31:26.591Z,9.40
2022-11-28T12:33:59.919Z,8.70
2022-11-28T12:36:29.951Z,8.70
2022-11-28T12:39:04.142Z,9.53
2022-11-28T12:41:42.277Z,9.40
2022-11-28T12:44:18.164Z,9.90
2022-11-28T12:46:47.924Z,11.00
2022-11-28T12:49:17.919Z,10.80
2022-11-28T12:51:53.280Z,11.87
2022-11-28T12:54:28.418Z,10.10
2022-11-28T12:57:01.921Z,9.40
2022-11-28T12:59:33.686Z,11.77
2022-11-28T13:02:08.268Z,9.97
2022-11-28T13:04:50.451Z,11.43
2022-11-28T13:07:22.206Z,10.70
2022-11-28T13:09:56.162Z,10.27
2022-11-28T13:12:30.299Z,10.00
2022-11-28T13:14:58.446Z,11.47
2022-11-28T13:17:35.835Z,9.20
2022-11-28T13:20:08.411Z,10.70
2022-11-28T13:22:39.992Z,10.33
2022-11-28T13:25:10.781Z,11.40
2022-11-28T13:27:43.658Z,10.10
2022-11-28T13:30:17.856Z,9.27
2022-11-28T13:32:47.427Z,17.30
2022-11-28T13:35:16.615Z,14.63
2022-11-28T13:40:41.124Z,11.17
2022-11-28T13:43:13.964Z,11.60
2022-11-28T13:45:42.410Z,10.43
2022-11-28T13:48:42.930Z,11.10
2022-11-28T13:51:20.758Z,8.83
2022-11-28T13:53:49.881Z,10.50
2022-11-28T13:56:21.843Z,10.73
2022-11-28T13:58:52.766Z,12.97
2022-11-28T14:01:21.373Z,11.53
2022-11-28T14:03:49.549Z,9.60
2022-11-28T14:06:19.358Z,10.20
2022-11-28T14:08:47.659Z,9.83
2022-11-28T14:11:36.085Z,11.67
2022-11-28T14:14:13.437Z,11.37
2022-11-28T14:16:51.553Z,9.47
2022-11-28T14:19:25.957Z,12.67
2022-11-28T14:21:58.261Z,9.37
2022-11-28T14:24:29.109Z,10.40
2022-11-28T14:26:58.373Z,9.40
2022-11-28T14:29:31.894Z,8.27
2022-11-28T14:32:29.568Z,8.60
2022-11-28T14:34:47.673Z,7.73
2022-11-28T14:37:35.157Z,7.37
2022-11-28T14:40:03.497Z,8.33
2022-11-28T14:42:59.530Z,10.30
2022-11-28T14:45:41.705Z,9.83
2022-11-28T14:48:16.604Z,10.17
2022-11-28T14:50:48.183Z,9.90
2022-11-28T14:53:34.367Z,8.73
2022-11-28T14:56:11.905Z,11.37
2022-11-28T14:58:39.460Z,9.10
2022-11-28T15:01:12.358Z,8.50
2022-11-28T15:03:42.865Z,8.27
2022-11-28T15:06:12.136Z,7.90
2022-11-28T15:08:49.867Z,8.17
2022-11-28T15:11:22.334Z,8.10
2022-11-28T15:13:57.220Z,7.77
2022-11-28T15:16:29.473Z,8.30
2022-11-28T15:18:59.698Z,8.00
2022-11-28T15:21:27.090Z,8.00
2022-11-28T15:23:55.565Z,7.67
2022-11-28T15:26:23.793Z,8.20
2022-11-28T15:29:08.289Z,7.53
2022-11-28T15:31:37.325Z,8.17
2022-11-28T15:34:08.594Z,7.90
2022-11-28T15:36:36.220Z,11.23
2022-11-28T15:39:03.648Z,10.17
2022-11-28T15:41:31.035Z,8.40
2022-11-28T15:43:58.514Z,8.17
2022-11-28T15:46:31.472Z,7.50
2022-11-28T15:49:01.407Z,7.43
2022-11-28T15:51:30.386Z,7.77
2022-11-28T15:53:57.946Z,8.10
2022-11-28T15:56:25.345Z,7.90
2022-11-28T15:58:53.305Z,8.10
2022-11-28T16:01:21.666Z,8.40
2022-11-28T16:03:51.414Z,8.13
2022-11-28T16:06:20.723Z,8.10
2022-11-28T16:08:50.225Z,8.30
2022-11-28T16:11:19.754Z,7.90
2022-11-28T16:13:47.770Z,8.30
2022-11-28T16:16:17.414Z,8.70
2022-11-28T16:18:46.191Z,8.53
2022-11-28T16:21:14.384Z,8.50
2022-11-28T16:23:43.448Z,8.63
2022-11-28T16:26:22.642Z,8.50
2022-11-28T16:28:57.417Z,7.97
2022-11-28T16:31:26.400Z,8.53
2022-11-28T16:33:53.778Z,8.73
2022-11-28T16:36:22.513Z,9.70
2022-11-28T16:38:52.107Z,9.10
2022-11-28T16:41:21.946Z,9.43
2022-11-28T16:43:50.973Z,9.43
2022-11-28T16:46:20.796Z,9.00
2022-11-28T16:48:49.259Z,9.10
2022-11-28T16:51:34.444Z,8.70
2022-11-28T16:54:23.220Z,8.43
2022-11-28T16:56:50.675Z,8.00
2022-11-28T16:59:18.813Z,9.10
2022-11-28T17:01:47.113Z,9.50
2022-11-28T17:04:21.976Z,9.50
2022-11-28T17:06:49.900Z,10.10
2022-11-28T17:09:18.807Z,11.57
2022-11-28T17:11:47.568Z,12.10
2022-11-28T17:14:15.305Z,12.17
2022-11-28T17:16:43.632Z,11.30
2022-11-28T17:19:11.081Z,13.33
2022-11-28T17:21:40.126Z,12.77
2022-11-28T17:24:12.970Z,12.67
2022-11-28T17:26:41.895Z,12.93
2022-11-28T17:29:11.129Z,12.93
2022-11-28T17:31:42.046Z,13.33
2022-11-28T17:34:14.745Z,13.00
2022-11-28T17:36:42.217Z,13.50
2022-11-28T17:39:09.743Z,11.67
2022-11-28T17:41:37.760Z,11.63
2022-11-28T17:44:06.943Z,9.80
2022-11-28T17:46:34.313Z,9.93
2022-11-28T17:49:01.768Z,9.50
2022-11-28T17:51:29.228Z,10.03
2022-11-28T17:53:56.648Z,9.70
2022-11-28T17:56:24.106Z,10.07
2022-11-28T17:58:51.902Z,8.83
2022-11-28T18:01:22.902Z,9.70
2022-11-28T18:03:50.404Z,9.20
2022-11-28T18:06:18.318Z,9.00
2022-11-28T18:08:46.321Z,8.63
2022-11-28T18:11:14.528Z,8.50
2022-11-28T18:13:42.531Z,8.70
2022-11-28T18:16:10.275Z,8.90
2022-11-28T18:18:39.099Z,10.00
2022-11-28T18:21:08.664Z,9.30
2022-11-28T18:23:36.329Z,9.67
2022-11-28T18:26:06.396Z,9.30
2022-11-28T18:28:33.872Z,9.60
2022-11-28T18:31:01.330Z,9.80
2022-11-28T18:33:28.741Z,10.63
2022-11-28T18:36:08.396Z,14.37
2022-11-28T18:38:35.872Z,13.00
2022-11-28T18:41:05.797Z,14.93
2022-11-28T18:43:33.222Z,15.60
2022-11-28T18:46:03.560Z,13.20
2022-11-28T18:48:31.023Z,11.57
2022-11-28T18:50:59.816Z,10.30
2022-11-28T18:53:27.327Z,10.80
2022-11-28T18:56:00.997Z,10.00
2022-11-28T18:58:29.170Z,9.87
2022-11-28T19:00:57.037Z,9.83
2022-11-28T19:03:25.227Z,9.90
2022-11-28T19:05:52.986Z,9.97
2022-11-28T19:08:22.510Z,9.93
2022-11-28T19:10:50.489Z,9.97
2022-11-28T19:13:18.411Z,9.53
2022-11-28T19:15:46.145Z,10.27
2022-11-28T19:18:14.260Z,10.90
2022-11-28T19:20:42.660Z,10.03
2022-11-28T19:23:10.459Z,11.67
2022-11-28T19:25:42.626Z,12.40
2022-11-28T19:28:10.403Z,12.90
2022-11-28T19:30:38.293Z,12.93
2022-11-28T19:33:06.059Z,12.37
2022-11-28T19:35:34.373Z,11.00
2022-11-28T19:38:01.817Z,10.87
2022-11-28T19:40:29.229Z,10.80
2022-11-28T19:42:58.041Z,11.07
2022-11-28T19:45:25.458Z,11.40
2022-11-28T19:47:52.906Z,11.07
2022-11-28T19:50:20.396Z,10.70
2022-11-28T19:52:47.834Z,11.77
2022-11-28T19:55:15.292Z,11.37
2022-11-28T19:57:42.763Z,12.67
2022-11-28T20:00:12.490Z,11.90
2022-11-28T20:02:40.086Z,11.43
2022-11-28T20:05:08.465Z,11.83
2022-11-28T20:07:36.615Z,12.87
2022-11-28T20:10:07.839Z,13.47
2022-11-28T20:12:35.564Z,11.87
2022-11-28T20:15:03.372Z,10.60
2022-11-28T20:17:32.894Z,11.30
2022-11-28T20:20:00.690Z,11.33
2022-11-28T20:22:28.096Z,11.47
2022-11-28T20:24:55.506Z,10.87
2022-11-28T20:27:22.970Z,11.07
2022-11-28T20:29:50.422Z,12.77
2022-11-28T20:32:17.841Z,11.97
2022-11-28T20:34:46.676Z,11.13
2022-11-28T20:37:14.155Z,12.57
2022-11-28T20:39:41.762Z,12.70
2022-11-28T20:42:09.475Z,12.60
2022-11-28T20:44:37.038Z,12.07
2022-11-28T20:47:04.528Z,11.97
2022-11-28T20:49:31.927Z,13.20
2022-11-28T20:52:00.750Z,13.40
2022-11-28T20:54:28.222Z,12.70
2022-11-28T20:57:20.234Z,12.23
2022-11-28T20:59:43.464Z,12.07
2022-11-28T21:02:11.431Z,11.93
2022-11-28T21:04:38.936Z,11.67
2022-11-28T21:07:07.751Z,11.80
2022-11-28T21:09:35.237Z,11.63
2022-11-28T21:12:02.687Z,11.43
2022-11-28T21:14:30.356Z,11.27
2022-11-28T21:16:58.342Z,11.30
2022-11-28T21:19:25.801Z,12.17
2022-11-28T21:21:53.395Z,12.60
2022-11-28T21:24:22.146Z,13.27
2022-11-28T21:26:53.400Z,11.87
2022-11-28T21:29:22.001Z,12.10
2022-11-28T21:31:49.566Z,11.80
2022-11-28T21:34:17.734Z,12.23
2022-11-28T21:36:45.690Z,11.80
2022-11-28T21:39:13.672Z,12.00
2022-11-28T21:41:42.933Z,11.77
2022-11-28T21:44:10.572Z,11.87
2022-11-28T21:46:38.086Z,12.10
2022-11-28T21:49:05.638Z,12.47
2022-11-28T21:51:33.044Z,12.27
2022-11-28T21:54:02.043Z,11.73
2022-11-28T21:56:29.537Z,12.70
2022-11-28T21:58:58.282Z,12.77
2022-11-28T22:01:25.734Z,12.80
2022-11-28T22:03:54.391Z,12.23
2022-11-28T22:06:25.578Z,13.17
2022-11-28T22:08:53.623Z,13.60
2022-11-28T22:11:21.795Z,12.73
2022-11-28T22:13:50.031Z,12.47
2022-11-28T22:16:20.675Z,12.70
2022-11-28T22:18:48.539Z,12.30
2022-11-28T22:24:03.898Z,12.27
2022-11-28T22:26:31.332Z,12.47
2022-11-28T22:28:59.281Z,13.40
2022-11-28T22:31:28.183Z,12.50
2022-11-28T22:33:55.696Z,12.77
2022-11-28T22:36:23.541Z,12.20
2022-11-28T22:38:54.684Z,11.97
2022-11-28T22:41:28.427Z,12.60
2022-11-28T22:43:59.071Z,13.10
2022-11-28T22:46:27.909Z,13.37
2022-11-28T22:48:55.293Z,12.50
2022-11-28T22:51:23.879Z,12.77
2022-11-28T22:53:53.179Z,12.57
2022-11-28T22:56:20.737Z,13.10
2022-11-28T22:58:48.691Z,13.70
2022-11-28T23:01:17.246Z,12.90
2022-11-28T23:03:46.452Z,13.40
2022-11-28T23:06:14.670Z,12.70
2022-11-28T23:08:42.269Z,12.40
2022-11-28T23:11:11.093Z,12.73
2022-11-28T23:13:39.206Z,12.60
2022-11-28T23:16:10.607Z,13.27
2022-11-28T23:18:38.522Z,12.60
2022-11-28T23:21:08.015Z,12.50
2022-11-28T23:23:36.084Z,13.23
2022-11-28T23:26:05.375Z,13.43
2022-11-28T23:28:33.784Z,12.93
2022-11-28T23:31:07.736Z,12.80
2022-11-28T23:33:35.205Z,12.37
2022-11-28T23:36:12.707Z,12.50
2022-11-28T23:38:40.102Z,12.20
2022-11-28T23:41:07.634Z,13.00
2022-11-28T23:43:35.134Z,13.33
2022-11-28T23:46:02.751Z,12.30
2022-11-28T23:48:30.354Z,12.50
2022-11-28T23:50:57.734Z,13.10
2022-11-28T23:53:26.858Z,13.20
2022-11-28T23:55:54.353Z,13.10
2022-11-28T23:58:22.084Z,12.90
